Time,TemperatureF,DewpointF,PressureIn,WindDirection,WindDirectionDegrees,WindSpeedMPH,WindSpeedGustMPH,Humidity,HourlyPrecipIn,Conditions,Clouds,dailyrainin,SolarRadiationWatts/m^2,SoftwareType,DateUTC
2013-07-07 00:01:00,83.0,52.0,-100.00,SE,124,6.0,10.0,35,0.00,,,0.00,1.000000,,2013-07-07 04:01:00,
2013-07-07 00:10:00,80.0,52.0,-100.00,SE,131,6.0,8.0,38,0.00,,,0.00,1.000000,,2013-07-07 04:10:00,
2013-07-07 00:31:00,80.0,52.0,-100.00,SE,131,6.0,8.0,38,0.00,,,0.00,1.000000,,2013-07-07 04:31:00,
2013-07-07 00:41:00,80.0,52.0,-100.00,SE,131,6.0,8.0,38,0.00,,,0.00,1.000000,,2013-07-07 04:41:00,
2013-07-07 00:51:00,80.0,52.0,-100.00,SE,131,6.0,8.0,38,0.00,,,0.00,1.000000,,2013-07-07 04:51:00,
2013-07-07 01:01:00,80.0,52.0,-100.00,SE,131,6.0,8.0,38,0.00,,,0.00,1.000000,,2013-07-07 05:01:00,
2013-07-07 01:10:00,80.0,55.0,-100.00,SE,134,6.0,8.0,43,0.00,,,0.00,1.000000,,2013-07-07 05:10:00,
2013-07-07 01:31:00,80.0,55.0,-100.00,SE,134,6.0,8.0,43,0.00,,,0.00,1.000000,,2013-07-07 05:31:00,
2013-07-07 01:41:00,80.0,55.0,-100.00,SE,134,6.0,8.0,43,0.00,,,0.00,1.000000,,2013-07-07 05:41:00,
2013-07-07 01:51:00,80.0,55.0,-100.00,SE,134,6.0,8.0,43,0.00,,,0.00,1.000000,,2013-07-07 05:51:00,
2013-07-07 02:01:00,80.0,55.0,-100.00,SE,134,6.0,8.0,43,0.00,,,0.00,1.000000,,2013-07-07 06:01:00,
2013-07-07 02:10:00,79.0,56.0,-100.00,ESE,122,7.0,10.0,46,0.00,,,0.00,1.000000,,2013-07-07 06:10:00,
2013-07-07 02:43:00,79.0,56.0,-100.00,ESE,122,7.0,10.0,46,0.00,,,0.00,1.000000,,2013-07-07 06:43:00,
2013-07-07 02:52:00,79.0,56.0,-100.00,ESE,122,7.0,10.0,46,0.00,,,0.00,1.000000,,2013-07-07 06:52:00,
2013-07-07 03:02:00,79.0,56.0,-100.00,ESE,122,7.0,10.0,46,0.00,,,0.00,1.000000,,2013-07-07 07:02:00,
2013-07-07 03:10:00,77.0,57.0,-100.00,SE,130,7.0,9.0,50,0.00,,,0.00,1.000000,,2013-07-07 07:10:00,
2013-07-07 03:44:00,77.0,57.0,-100.00,SE,130,7.0,9.0,50,0.00,,,0.00,1.000000,,2013-07-07 07:44:00,
2013-07-07 03:53:00,77.0,57.0,-100.00,SE,130,7.0,9.0,50,0.00,,,0.00,1.000000,,2013-07-07 07:53:00,
2013-07-07 04:02:00,77.0,57.0,-100.00,SE,130,7.0,9.0,50,0.00,,,0.00,1.000000,,2013-07-07 08:02:00,
2013-07-07 04:10:00,75.0,58.0,-100.00,SE,138,6.0,8.0,55,0.00,,,0.00,1.000000,,2013-07-07 08:10:00,
2013-07-07 04:44:00,75.0,58.0,-100.00,SE,138,6.0,8.0,55,0.00,,,0.00,1.000000,,2013-07-07 08:44:00,
2013-07-07 04:53:00,75.0,58.0,-100.00,SE,138,6.0,8.0,55,0.00,,,0.00,1.000000,,2013-07-07 08:53:00,
2013-07-07 05:02:00,75.0,58.0,-100.00,SE,138,6.0,8.0,55,0.00,,,0.00,1.000000,,2013-07-07 09:02:00,
2013-07-07 05:10:00,74.0,59.0,-100.00,SSE,150,5.0,6.0,59,0.00,,,0.00,1.000000,,2013-07-07 09:10:00,
2013-07-07 05:43:00,74.0,59.0,-100.00,SSE,150,5.0,6.0,59,0.00,,,0.00,1.000000,,2013-07-07 09:43:00,
2013-07-07 05:53:00,74.0,59.0,-100.00,SSE,150,5.0,6.0,59,0.00,,,0.00,1.000000,,2013-07-07 09:53:00,
2013-07-07 06:03:00,74.0,59.0,-100.00,SSE,150,5.0,6.0,59,0.00,,,0.00,1.000000,,2013-07-07 10:03:00,
2013-07-07 06:10:00,74.0,61.0,-100.00,South,170,4.0,7.0,64,0.00,,,0.00,1.000000,,2013-07-07 10:10:00,
2013-07-07 06:32:00,74.0,61.0,-100.00,South,170,4.0,7.0,64,0.00,,,0.00,1.000000,,2013-07-07 10:32:00,
2013-07-07 06:43:00,74.0,61.0,-100.00,South,170,4.0,7.0,64,0.00,,,0.00,1.000000,,2013-07-07 10:43:00,
2013-07-07 06:52:00,74.0,61.0,-100.00,South,170,4.0,7.0,64,0.00,,,0.00,1.000000,,2013-07-07 10:52:00,
2013-07-07 07:02:00,74.0,61.0,-100.00,South,170,4.0,7.0,64,0.00,,,0.00,1.000000,,2013-07-07 11:02:00,
2013-07-07 07:10:00,73.0,62.0,-100.00,SSE,162,4.0,6.0,68,0.00,,,0.00,1.000000,,2013-07-07 11:10:00,
2013-07-07 07:43:00,73.0,62.0,-100.00,SSE,162,4.0,6.0,68,0.00,,,0.00,1.000000,,2013-07-07 11:43:00,
2013-07-07 07:53:00,73.0,62.0,-100.00,SSE,162,4.0,6.0,68,0.00,,,0.00,1.000000,,2013-07-07 11:53:00,
2013-07-07 08:02:00,73.0,62.0,-100.00,SSE,162,4.0,6.0,68,0.00,,,0.00,1.000000,,2013-07-07 12:02:00,
2013-07-07 08:10:00,72.0,62.0,-100.00,ESE,110,4.0,6.0,72,0.00,,,0.00,18.000000,,2013-07-07 12:10:00,
2013-07-07 08:43:00,72.0,62.0,-100.00,ESE,110,4.0,6.0,72,0.00,,,0.00,18.000000,,2013-07-07 12:43:00,
2013-07-07 08:52:00,72.0,62.0,-100.00,ESE,110,4.0,6.0,72,0.00,,,0.00,18.000000,,2013-07-07 12:52:00,
2013-07-07 09:02:00,72.0,62.0,-100.00,ESE,110,4.0,6.0,72,0.00,,,0.00,18.000000,,2013-07-07 13:02:00,
2013-07-07 09:10:00,76.0,68.0,-100.00,SE,135,5.0,9.0,76,0.00,,,0.00,168.000000,,2013-07-07 13:10:00,
2013-07-07 09:43:00,76.0,68.0,-100.00,SE,135,5.0,9.0,76,0.00,,,0.00,168.000000,,2013-07-07 13:43:00,
2013-07-07 09:52:00,76.0,68.0,-100.00,SE,135,5.0,9.0,76,0.00,,,0.00,168.000000,,2013-07-07 13:52:00,
2013-07-07 10:02:00,76.0,68.0,-100.00,SE,135,5.0,9.0,76,0.00,,,0.00,168.000000,,2013-07-07 14:02:00,
2013-07-07 10:10:00,81.0,70.0,-100.00,SSE,162,10.0,15.0,70,0.00,,,0.00,396.000000,,2013-07-07 14:10:00,
2013-07-07 10:43:00,81.0,70.0,-100.00,SSE,162,10.0,15.0,70,0.00,,,0.00,396.000000,,2013-07-07 14:43:00,
2013-07-07 10:53:00,81.0,70.0,-100.00,SSE,162,10.0,15.0,70,0.00,,,0.00,396.000000,,2013-07-07 14:53:00,
2013-07-07 11:02:00,81.0,70.0,-100.00,SSE,162,10.0,15.0,70,0.00,,,0.00,396.000000,,2013-07-07 15:02:00,
2013-07-07 11:10:00,83.0,68.0,-100.00,South,175,11.0,16.0,60,0.00,,,0.00,639.000000,,2013-07-07 15:10:00,
2013-07-07 11:43:00,83.0,68.0,-100.00,South,175,11.0,16.0,60,0.00,,,0.00,639.000000,,2013-07-07 15:43:00,
2013-07-07 11:52:00,83.0,68.0,-100.00,South,175,11.0,16.0,60,0.00,,,0.00,639.000000,,2013-07-07 15:52:00,
2013-07-07 12:01:00,83.0,68.0,-100.00,South,175,11.0,16.0,60,0.00,,,0.00,639.000000,,2013-07-07 16:01:00,
2013-07-07 12:10:00,87.0,68.0,-100.00,SE,143,8.0,17.0,53,0.00,,,0.00,836.000000,,2013-07-07 16:10:00,
2013-07-07 12:43:00,87.0,68.0,-100.00,SE,143,8.0,17.0,53,0.00,,,0.00,836.000000,,2013-07-07 16:43:00,
2013-07-07 12:53:00,87.0,68.0,-100.00,SE,143,8.0,17.0,53,0.00,,,0.00,836.000000,,2013-07-07 16:53:00,
2013-07-07 13:02:00,87.0,68.0,-100.00,SE,143,8.0,17.0,53,0.00,,,0.00,836.000000,,2013-07-07 17:02:00,
2013-07-07 13:10:00,89.0,65.0,-100.00,SE,140,8.0,15.0,46,0.00,,,0.00,984.000000,,2013-07-07 17:10:00,
2013-07-07 13:43:00,89.0,65.0,-100.00,SE,140,8.0,15.0,46,0.00,,,0.00,984.000000,,2013-07-07 17:43:00,
2013-07-07 13:53:00,89.0,65.0,-100.00,SE,140,8.0,15.0,46,0.00,,,0.00,984.000000,,2013-07-07 17:53:00,
2013-07-07 14:02:00,89.0,65.0,-100.00,SE,140,8.0,15.0,46,0.00,,,0.00,984.000000,,2013-07-07 18:02:00,
2013-07-07 14:10:00,90.0,63.0,-100.00,ESE,115,9.0,17.0,41,0.00,,,0.00,934.000000,,2013-07-07 18:10:00,
2013-07-07 14:43:00,90.0,63.0,-100.00,ESE,115,9.0,17.0,41,0.00,,,0.00,934.000000,,2013-07-07 18:43:00,
2013-07-07 14:53:00,90.0,63.0,-100.00,ESE,115,9.0,17.0,41,0.00,,,0.00,934.000000,,2013-07-07 18:53:00,
2013-07-07 15:01:00,90.0,63.0,-100.00,ESE,115,9.0,17.0,41,0.00,,,0.00,934.000000,,2013-07-07 19:01:00,
2013-07-07 15:10:00,93.0,62.0,-100.00,East,95,9.0,19.0,36,0.00,,,0.00,993.000000,,2013-07-07 19:10:00,
2013-07-07 15:43:00,93.0,62.0,-100.00,East,95,9.0,19.0,36,0.00,,,0.00,993.000000,,2013-07-07 19:43:00,
2013-07-07 15:54:00,93.0,62.0,-100.00,East,95,9.0,19.0,36,0.00,,,0.00,993.000000,,2013-07-07 19:54:00,
2013-07-07 16:02:00,93.0,62.0,-100.00,East,95,9.0,19.0,36,0.00,,,0.00,993.000000,,2013-07-07 20:02:00,
2013-07-07 16:10:00,93.0,60.0,-100.00,SE,126,10.0,19.0,33,0.00,,,0.00,979.000000,,2013-07-07 20:10:00,
2013-07-07 16:34:00,93.0,60.0,-100.00,SE,126,10.0,19.0,33,0.00,,,0.00,979.000000,,2013-07-07 20:34:00,
2013-07-07 16:42:00,93.0,60.0,-100.00,SE,126,10.0,19.0,33,0.00,,,0.00,979.000000,,2013-07-07 20:42:00,
2013-07-07 16:53:00,93.0,60.0,-100.00,SE,126,10.0,19.0,33,0.00,,,0.00,979.000000,,2013-07-07 20:53:00,
2013-07-07 17:02:00,93.0,60.0,-100.00,SE,126,10.0,19.0,33,0.00,,,0.00,979.000000,,2013-07-07 21:02:00,
2013-07-07 17:10:00,94.0,59.0,-100.00,ESE,114,11.0,20.0,31,0.00,,,0.00,859.000000,,2013-07-07 21:10:00,
2013-07-07 17:44:00,94.0,59.0,-100.00,ESE,114,11.0,20.0,31,0.00,,,0.00,859.000000,,2013-07-07 21:44:00,
2013-07-07 17:53:00,94.0,59.0,-100.00,ESE,114,11.0,20.0,31,0.00,,,0.00,859.000000,,2013-07-07 21:53:00,
2013-07-07 18:01:00,94.0,59.0,-100.00,ESE,114,11.0,20.0,31,0.00,,,0.00,859.000000,,2013-07-07 22:01:00,
2013-07-07 18:10:00,95.0,59.0,-100.00,ESE,103,12.0,20.0,30,0.00,,,0.00,711.000000,,2013-07-07 22:10:00,
2013-07-07 18:34:00,95.0,59.0,-100.00,ESE,103,12.0,20.0,30,0.00,,,0.00,711.000000,,2013-07-07 22:34:00,
2013-07-07 18:44:00,95.0,59.0,-100.00,ESE,103,12.0,20.0,30,0.00,,,0.00,711.000000,,2013-07-07 22:44:00,
2013-07-07 18:54:00,95.0,59.0,-100.00,ESE,103,12.0,20.0,30,0.00,,,0.00,711.000000,,2013-07-07 22:54:00,
2013-07-07 19:02:00,95.0,59.0,-100.00,ESE,103,12.0,20.0,30,0.00,,,0.00,711.000000,,2013-07-07 23:02:00,
2013-07-07 19:10:00,94.0,59.0,-100.00,ESE,120,11.0,18.0,31,0.00,,,0.00,543.000000,,2013-07-07 23:10:00,
2013-07-07 19:33:00,94.0,59.0,-100.00,ESE,120,11.0,18.0,31,0.00,,,0.00,543.000000,,2013-07-07 23:33:00,
2013-07-07 19:43:00,94.0,59.0,-100.00,ESE,120,11.0,18.0,31,0.00,,,0.00,543.000000,,2013-07-07 23:43:00,
2013-07-07 19:53:00,94.0,59.0,-100.00,ESE,120,11.0,18.0,31,0.00,,,0.00,543.000000,,2013-07-07 23:53:00,
2013-07-07 20:01:00,94.0,59.0,-100.00,ESE,120,11.0,18.0,31,0.00,,,0.00,543.000000,,2013-07-08 00:01:00,
2013-07-07 20:10:00,92.0,58.0,-100.00,ESE,110,12.0,17.0,32,0.00,,,-99.99,314.000000,,2013-07-08 00:10:00,
2013-07-07 20:43:00,92.0,58.0,-100.00,ESE,110,12.0,17.0,32,0.00,,,-99.99,314.000000,,2013-07-08 00:43:00,
2013-07-07 20:53:00,92.0,58.0,-100.00,ESE,110,12.0,17.0,32,0.00,,,-99.99,314.000000,,2013-07-08 00:53:00,
2013-07-07 21:01:00,92.0,58.0,-100.00,ESE,110,12.0,17.0,32,0.00,,,-99.99,314.000000,,2013-07-08 01:01:00,
2013-07-07 21:10:00,90.0,58.0,-100.00,SE,131,10.0,16.0,34,0.00,,,0.00,122.000000,,2013-07-08 01:10:00,
2013-07-07 21:32:00,90.0,58.0,-100.00,SE,131,10.0,16.0,34,0.00,,,0.00,122.000000,,2013-07-08 01:32:00,
2013-07-07 21:43:00,90.0,58.0,-100.00,SE,131,10.0,16.0,34,0.00,,,0.00,122.000000,,2013-07-08 01:43:00,
2013-07-07 21:53:00,90.0,58.0,-100.00,SE,131,10.0,16.0,34,0.00,,,0.00,122.000000,,2013-07-08 01:53:00,
2013-07-07 22:02:00,90.0,58.0,-100.00,SE,131,10.0,16.0,34,0.00,,,0.00,122.000000,,2013-07-08 02:02:00,
2013-07-07 22:10:00,87.0,58.0,-100.00,ESE,120,6.0,10.0,37,0.00,,,0.00,14.000000,,2013-07-08 02:10:00,
2013-07-07 22:43:00,87.0,58.0,-100.00,ESE,120,6.0,10.0,37,0.00,,,0.00,14.000000,,2013-07-08 02:43:00,
2013-07-07 22:52:00,87.0,58.0,-100.00,ESE,120,6.0,10.0,37,0.00,,,0.00,14.000000,,2013-07-08 02:52:00,
2013-07-07 23:01:00,87.0,58.0,-100.00,ESE,120,6.0,10.0,37,0.00,,,0.00,14.000000,,2013-07-08 03:01:00,
2013-07-07 23:10:00,84.0,58.0,-100.00,ESE,122,5.0,7.0,41,0.00,,,0.00,1.000000,,2013-07-08 03:10:00,
2013-07-07 23:34:00,84.0,58.0,-100.00,ESE,122,5.0,7.0,41,0.00,,,0.00,1.000000,,2013-07-08 03:34:00,
2013-07-07 23:42:00,84.0,58.0,-100.00,ESE,122,5.0,7.0,41,0.00,,,0.00,1.000000,,2013-07-08 03:42:00,
2013-07-07 23:52:00,84.0,58.0,-100.00,ESE,122,5.0,7.0,41,0.00,,,0.00,1.000000,,2013-07-08 03:52:00,